UAE921 OMDB-HECA
Flight info
| Callsign | UAE921 |
|---|---|
| Flight time | N/A |
| Altitude | 38000 |
| Route | SENPA N571 ALPOB L768 VATIM L550 NOVPA N697 MENLI L677 CVO |
| Aircraft | A359/H-SDE2E3GHIJ3J4J5LM1ORWXY/LB1D1 |
Departure
| Time | 2026-04-26 10:10 |
|---|---|
| Airport | Dubai International Airport (OMDB) |
Arrival
| Time | N/A |
|---|---|
| Airport | Cairo International Airport (HECA) |
| Time | Latitude | Longitude | Altitude | Speed | Heading |
|---|---|---|---|---|---|
| 2026-04-26 09:33 | 25.24431 | 55.37219 | 28 ft | 0 kts | 211° |
| 2026-04-26 09:54 | 25.24432 | 55.37219 | 28 ft | 1 kts | 211° |
| 2026-04-26 09:54 | 25.24452 | 55.37232 | 27 ft | 4 kts | 211° |
| 2026-04-26 09:54 | 25.24475 | 55.37247 | 26 ft | 4 kts | 203° |
| 2026-04-26 09:54 | 25.24501 | 55.37255 | 26 ft | 4 kts | 178° |
| 2026-04-26 09:55 | 25.24525 | 55.37248 | 27 ft | 4 kts | 137° |
| 2026-04-26 09:55 | 25.24532 | 55.37239 | 28 ft | 0 kts | 122° |
| 2026-04-26 09:57 | 25.24519 | 55.37262 | 28 ft | 8 kts | 122° |
| 2026-04-26 09:58 | 25.24474 | 55.37343 | 28 ft | 17 kts | 122° |
| 2026-04-26 09:58 | 25.24399 | 55.37476 | 28 ft | 22 kts | 122° |
| 2026-04-26 09:58 | 25.24316 | 55.37624 | 28 ft | 19 kts | 122° |
| 2026-04-26 09:58 | 25.24269 | 55.37709 | 28 ft | 11 kts | 120° |
| 2026-04-26 09:59 | 25.24267 | 55.37764 | 28 ft | 6 kts | 64° |
| 2026-04-26 09:59 | 25.24274 | 55.37774 | 28 ft | 0 kts | 49° |
| 2026-04-26 09:59 | 25.24277 | 55.37778 | 28 ft | 3 kts | 47° |
| 2026-04-26 10:00 | 25.24315 | 55.37810 | 28 ft | 8 kts | 35° |
| 2026-04-26 10:00 | 25.24341 | 55.37830 | 28 ft | 0 kts | 34° |
| 2026-04-26 10:00 | 25.24345 | 55.37832 | 28 ft | 4 kts | 34° |
| 2026-04-26 10:01 | 25.24399 | 55.37873 | 28 ft | 15 kts | 34° |
| 2026-04-26 10:01 | 25.24497 | 55.37948 | 28 ft | 14 kts | 34° |
| 2026-04-26 10:01 | 25.24548 | 55.37987 | 28 ft | 7 kts | 33° |
| 2026-04-26 10:01 | 25.24570 | 55.38003 | 28 ft | 2 kts | 33° |
| 2026-04-26 10:03 | 25.24573 | 55.38004 | 28 ft | 2 kts | 33° |
| 2026-04-26 10:03 | 25.24605 | 55.38027 | 27 ft | 7 kts | 33° |
| 2026-04-26 10:03 | 25.24633 | 55.38047 | 28 ft | 0 kts | 32° |
| 2026-04-26 10:07 | 25.24656 | 55.38063 | 28 ft | 8 kts | 32° |
| 2026-04-26 10:07 | 25.24715 | 55.38104 | 28 ft | 11 kts | 30° |
| 2026-04-26 10:07 | 25.24772 | 55.38084 | 28 ft | 4 kts | 307° |
| 2026-04-26 10:07 | 25.24777 | 55.38077 | 28 ft | 0 kts | 304° |
| 2026-04-26 10:09 | 25.24819 | 55.38008 | 28 ft | 28 kts | 299° |
| 2026-04-26 10:09 | 25.25031 | 55.37622 | 28 ft | 93 kts | 301° |
| 2026-04-26 10:10 | 25.25480 | 55.36812 | 29 ft | 152 kts | 301° |
| 2026-04-26 10:10 | 25.26042 | 55.35773 | 680 ft | 150 kts | 303° |
| 2026-04-26 10:10 | 25.26559 | 55.34782 | 1382 ft | 154 kts | 301° |
| 2026-04-26 10:10 | 25.27097 | 55.33733 | 1945 ft | 158 kts | 301° |
| 2026-04-26 10:11 | 25.27672 | 55.32672 | 2291 ft | 164 kts | 304° |
| 2026-04-26 10:11 | 25.28290 | 55.31604 | 2759 ft | 165 kts | 304° |
| 2026-04-26 10:11 | 25.28928 | 55.30539 | 3218 ft | 169 kts | 305° |
| 2026-04-26 10:11 | 25.29516 | 55.29337 | 3453 ft | 189 kts | 290° |
| 2026-04-26 10:12 | 25.29745 | 55.27829 | 3724 ft | 207 kts | 276° |
| 2026-04-26 10:12 | 25.29856 | 55.26180 | 4026 ft | 221 kts | 276° |
| 2026-04-26 10:12 | 25.29977 | 55.24455 | 4446 ft | 228 kts | 275° |
| 2026-04-26 10:12 | 25.30112 | 55.22688 | 4943 ft | 232 kts | 276° |
| 2026-04-26 10:13 | 25.30248 | 55.20924 | 5461 ft | 234 kts | 276° |
| 2026-04-26 10:13 | 25.30379 | 55.19132 | 6033 ft | 235 kts | 274° |
| 2026-04-26 10:13 | 25.30355 | 55.17313 | 6501 ft | 241 kts | 267° |
| 2026-04-26 10:13 | 25.30216 | 55.15408 | 6745 ft | 256 kts | 266° |
| 2026-04-26 10:14 | 25.30054 | 55.13407 | 7066 ft | 266 kts | 266° |
| 2026-04-26 10:14 | 25.29890 | 55.11349 | 7539 ft | 270 kts | 266° |
| 2026-04-26 10:14 | 25.29726 | 55.09266 | 8050 ft | 273 kts | 266° |
| 2026-04-26 10:14 | 25.29563 | 55.07170 | 8592 ft | 275 kts | 266° |
| 2026-04-26 10:15 | 25.29398 | 55.05055 | 9126 ft | 277 kts | 266° |
| 2026-04-26 10:15 | 25.29233 | 55.02921 | 9705 ft | 279 kts | 265° |
| 2026-04-26 10:15 | 25.29067 | 55.00776 | 10169 ft | 283 kts | 265° |
| 2026-04-26 10:15 | 25.28895 | 54.98562 | 10421 ft | 295 kts | 265° |
| 2026-04-26 10:16 | 25.28716 | 54.96253 | 10644 ft | 308 kts | 265° |
| 2026-04-26 10:16 | 25.28535 | 54.93851 | 10866 ft | 319 kts | 266° |
| 2026-04-26 10:16 | 25.28386 | 54.88499 | 11290 ft | 342 kts | 269° |
| 2026-04-26 10:17 | 25.28325 | 54.85840 | 11493 ft | 351 kts | 268° |
| 2026-04-26 10:17 | 25.28256 | 54.83111 | 11778 ft | 356 kts | 268° |
| 2026-04-26 10:17 | 25.28182 | 54.80359 | 12154 ft | 359 kts | 268° |
| 2026-04-26 10:17 | 25.28102 | 54.77577 | 12518 ft | 362 kts | 268° |
| 2026-04-26 10:18 | 25.28130 | 54.74792 | 12869 ft | 365 kts | 276° |
| 2026-04-26 10:18 | 25.28647 | 54.72047 | 13292 ft | 366 kts | 284° |
| 2026-04-26 10:18 | 25.29324 | 54.69363 | 13661 ft | 368 kts | 285° |
| 2026-04-26 10:18 | 25.30036 | 54.66592 | 13981 ft | 371 kts | 285° |
| 2026-04-26 10:19 | 25.30729 | 54.63884 | 14318 ft | 372 kts | 284° |
| 2026-04-26 10:19 | 25.31431 | 54.61120 | 14700 ft | 372 kts | 285° |
| 2026-04-26 10:19 | 25.32128 | 54.58367 | 15103 ft | 372 kts | 285° |
| 2026-04-26 10:19 | 25.32828 | 54.55597 | 15414 ft | 375 kts | 285° |
| 2026-04-26 10:20 | 25.33532 | 54.52809 | 15759 ft | 377 kts | 285° |
| 2026-04-26 10:20 | 25.34014 | 54.50956 | 15988 ft | 379 kts | 285° |
| 2026-04-26 10:20 | 25.35024 | 54.47211 | 16430 ft | 381 kts | 286° |
| 2026-04-26 10:20 | 25.35797 | 54.44394 | 16797 ft | 384 kts | 286° |
| 2026-04-26 10:21 | 25.36547 | 54.41659 | 17121 ft | 386 kts | 286° |
| 2026-04-26 10:21 | 25.37352 | 54.38707 | 17478 ft | 388 kts | 286° |
| 2026-04-26 10:21 | 25.38130 | 54.35843 | 17822 ft | 390 kts | 286° |
| 2026-04-26 10:21 | 25.38898 | 54.33001 | 18158 ft | 392 kts | 285° |
| 2026-04-26 10:22 | 25.39678 | 54.30105 | 18461 ft | 393 kts | 285° |
| 2026-04-26 10:22 | 25.40459 | 54.27201 | 18775 ft | 395 kts | 285° |
| 2026-04-26 10:22 | 25.41220 | 54.24283 | 19088 ft | 396 kts | 284° |
| 2026-04-26 10:22 | 25.41954 | 54.21334 | 19373 ft | 398 kts | 283° |
| 2026-04-26 10:23 | 25.42676 | 54.18375 | 19686 ft | 399 kts | 283° |
| 2026-04-26 10:23 | 25.43399 | 54.15403 | 20014 ft | 400 kts | 283° |
| 2026-04-26 10:23 | 25.44127 | 54.12427 | 20345 ft | 400 kts | 283° |
| 2026-04-26 10:23 | 25.44858 | 54.09453 | 20661 ft | 401 kts | 283° |
| 2026-04-26 10:24 | 25.45590 | 54.06466 | 20961 ft | 402 kts | 282° |
| 2026-04-26 10:24 | 25.46310 | 54.03470 | 21258 ft | 403 kts | 282° |
| 2026-04-26 10:24 | 25.47028 | 54.00467 | 21548 ft | 404 kts | 282° |
| 2026-04-26 10:24 | 25.47743 | 53.97470 | 21874 ft | 405 kts | 282° |
| 2026-04-26 10:25 | 25.48463 | 53.94460 | 22188 ft | 405 kts | 282° |
| 2026-04-26 10:25 | 25.49186 | 53.91437 | 22472 ft | 406 kts | 282° |
| 2026-04-26 10:25 | 25.49908 | 53.88421 | 22763 ft | 407 kts | 282° |
| 2026-04-26 10:25 | 25.50628 | 53.85413 | 23033 ft | 408 kts | 281° |
| 2026-04-26 10:26 | 25.51366 | 53.82333 | 23322 ft | 409 kts | 281° |
| 2026-04-26 10:26 | 25.52095 | 53.79286 | 23567 ft | 410 kts | 281° |
| 2026-04-26 10:26 | 25.52818 | 53.76259 | 23779 ft | 411 kts | 281° |
| 2026-04-26 10:26 | 25.53555 | 53.73187 | 23984 ft | 413 kts | 282° |
| 2026-04-26 10:27 | 25.54292 | 53.70116 | 24198 ft | 414 kts | 282° |
| 2026-04-26 10:27 | 25.55030 | 53.67030 | 24424 ft | 415 kts | 281° |
| 2026-04-26 10:27 | 25.55769 | 53.63941 | 24707 ft | 414 kts | 281° |
| 2026-04-26 10:27 | 25.56505 | 53.60858 | 24931 ft | 415 kts | 281° |
| 2026-04-26 10:28 | 25.57244 | 53.57757 | 25139 ft | 416 kts | 282° |
| 2026-04-26 10:28 | 25.57983 | 53.54651 | 25354 ft | 417 kts | 282° |
| 2026-04-26 10:28 | 25.58723 | 53.51541 | 25565 ft | 418 kts | 282° |
| 2026-04-26 10:28 | 25.59467 | 53.48414 | 25773 ft | 420 kts | 282° |
| 2026-04-26 10:29 | 25.60209 | 53.45290 | 25994 ft | 421 kts | 282° |
| 2026-04-26 10:29 | 25.60956 | 53.42143 | 26223 ft | 422 kts | 282° |
| 2026-04-26 10:29 | 25.61704 | 53.38996 | 26447 ft | 423 kts | 282° |
| 2026-04-26 10:29 | 25.62453 | 53.35839 | 26675 ft | 424 kts | 282° |
| 2026-04-26 10:30 | 25.63200 | 53.32675 | 26907 ft | 425 kts | 282° |
| 2026-04-26 10:30 | 25.63935 | 53.29549 | 27124 ft | 426 kts | 282° |
| 2026-04-26 10:30 | 25.64693 | 53.26325 | 27357 ft | 427 kts | 282° |
| 2026-04-26 10:30 | 25.65431 | 53.23181 | 27567 ft | 428 kts | 282° |
| 2026-04-26 10:31 | 25.66183 | 53.19977 | 27802 ft | 430 kts | 282° |
| 2026-04-26 10:31 | 25.66938 | 53.16762 | 28086 ft | 430 kts | 282° |
| 2026-04-26 10:31 | 25.67690 | 53.13556 | 28359 ft | 431 kts | 282° |
| 2026-04-26 10:31 | 25.68447 | 53.10328 | 28597 ft | 432 kts | 282° |
| 2026-04-26 10:32 | 25.68946 | 53.08197 | 28732 ft | 433 kts | 282° |
| 2026-04-26 10:32 | 25.69706 | 53.04952 | 28980 ft | 434 kts | 282° |
| 2026-04-26 10:32 | 25.70634 | 53.01754 | 29200 ft | 438 kts | 288° |
| 2026-04-26 10:32 | 25.72352 | 52.97626 | 29523 ft | 442 kts | 293° |
| 2026-04-26 10:33 | 25.73270 | 52.95602 | 29692 ft | 443 kts | 293° |
| 2026-04-26 10:33 | 25.74688 | 52.92566 | 29927 ft | 445 kts | 294° |
| 2026-04-26 10:33 | 25.76138 | 52.89518 | 30143 ft | 446 kts | 294° |
| 2026-04-26 10:33 | 25.77593 | 52.86474 | 30382 ft | 446 kts | 294° |
| 2026-04-26 10:34 | 25.79026 | 52.83471 | 30634 ft | 446 kts | 294° |
| 2026-04-26 10:34 | 25.80476 | 52.80422 | 30883 ft | 446 kts | 294° |
| 2026-04-26 10:34 | 25.81919 | 52.77374 | 31130 ft | 446 kts | 295° |
| 2026-04-26 10:34 | 25.83358 | 52.74323 | 31378 ft | 446 kts | 295° |
| 2026-04-26 10:35 | 25.84792 | 52.71277 | 31606 ft | 446 kts | 295° |
| 2026-04-26 10:35 | 25.86233 | 52.68212 | 31811 ft | 447 kts | 295° |
| 2026-04-26 10:35 | 25.87672 | 52.65149 | 32016 ft | 447 kts | 295° |
| 2026-04-26 10:35 | 25.89113 | 52.62079 | 32220 ft | 447 kts | 295° |
| 2026-04-26 10:36 | 25.90551 | 52.59011 | 32420 ft | 448 kts | 295° |
| 2026-04-26 10:36 | 25.91949 | 52.55924 | 32705 ft | 445 kts | 294° |
| 2026-04-26 10:36 | 25.93284 | 52.52886 | 33043 ft | 442 kts | 294° |
| 2026-04-26 10:36 | 25.94615 | 52.49823 | 33394 ft | 439 kts | 294° |
| 2026-04-26 10:37 | 25.95935 | 52.46784 | 33830 ft | 435 kts | 294° |
| 2026-04-26 10:37 | 25.97250 | 52.43767 | 34161 ft | 432 kts | 294° |
| 2026-04-26 10:37 | 25.98565 | 52.40758 | 34350 ft | 432 kts | 294° |
| 2026-04-26 10:37 | 25.99888 | 52.37755 | 34539 ft | 433 kts | 294° |
| 2026-04-26 10:38 | 26.01222 | 52.34758 | 34740 ft | 433 kts | 294° |
| 2026-04-26 10:38 | 26.02567 | 52.31751 | 34968 ft | 433 kts | 294° |
| 2026-04-26 10:38 | 26.03909 | 52.28753 | 35196 ft | 432 kts | 294° |
| 2026-04-26 10:38 | 26.05234 | 52.25791 | 35401 ft | 433 kts | 294° |
| 2026-04-26 10:39 | 26.06588 | 52.22757 | 35614 ft | 433 kts | 294° |
| 2026-04-26 10:39 | 26.07927 | 52.19755 | 35854 ft | 432 kts | 294° |
| 2026-04-26 10:39 | 26.09239 | 52.16808 | 36106 ft | 432 kts | 294° |
| 2026-04-26 10:39 | 26.10568 | 52.13821 | 36432 ft | 429 kts | 294° |
| 2026-04-26 10:40 | 26.11891 | 52.10844 | 36695 ft | 428 kts | 294° |
| 2026-04-26 10:40 | 26.13211 | 52.07870 | 36913 ft | 428 kts | 294° |
| 2026-04-26 10:40 | 26.14530 | 52.04898 | 37129 ft | 428 kts | 294° |
| 2026-04-26 10:40 | 26.15851 | 52.01917 | 37290 ft | 429 kts | 294° |
| 2026-04-26 10:41 | 26.17177 | 51.98925 | 37499 ft | 430 kts | 294° |
| 2026-04-26 10:41 | 26.18515 | 51.95939 | 37735 ft | 429 kts | 294° |
| 2026-04-26 10:41 | 26.19856 | 51.92976 | 37969 ft | 429 kts | 294° |
| 2026-04-26 10:41 | 26.21190 | 51.90008 | 38193 ft | 428 kts | 294° |
| 2026-04-26 10:42 | 26.22506 | 51.87034 | 38395 ft | 428 kts | 294° |
| 2026-04-26 10:42 | 26.23815 | 51.84051 | 38636 ft | 427 kts | 293° |
| 2026-04-26 10:42 | 26.25114 | 51.81086 | 38860 ft | 426 kts | 293° |
| 2026-04-26 10:42 | 26.26403 | 51.78162 | 39003 ft | 426 kts | 294° |
| 2026-04-26 10:43 | 26.27719 | 51.75198 | 39158 ft | 426 kts | 294° |
| 2026-04-26 10:43 | 26.29036 | 51.72244 | 39307 ft | 426 kts | 294° |
| 2026-04-26 10:43 | 26.30359 | 51.69278 | 39469 ft | 426 kts | 294° |
| 2026-04-26 10:43 | 26.31674 | 51.66328 | 39619 ft | 426 kts | 294° |
| 2026-04-26 10:44 | 26.32997 | 51.63375 | 39770 ft | 426 kts | 294° |
| 2026-04-26 10:44 | 26.34317 | 51.60420 | 39880 ft | 426 kts | 294° |
| 2026-04-26 10:44 | 26.36948 | 51.54504 | 39907 ft | 425 kts | 294° |
| 2026-04-26 10:45 | 26.39139 | 51.48415 | 39915 ft | 422 kts | 288° |
| 2026-04-26 10:45 | 26.41132 | 51.42254 | 39905 ft | 422 kts | 288° |
| 2026-04-26 10:46 | 26.43090 | 51.36084 | 39904 ft | 422 kts | 288° |
| 2026-04-26 10:46 | 26.45046 | 51.29947 | 39909 ft | 422 kts | 288° |
| 2026-04-26 10:47 | 26.47018 | 51.23769 | 39911 ft | 422 kts | 288° |
| 2026-04-26 10:47 | 26.48985 | 51.17600 | 39913 ft | 422 kts | 288° |
| 2026-04-26 10:48 | 26.50945 | 51.11433 | 39911 ft | 421 kts | 288° |
| 2026-04-26 10:48 | 26.52903 | 51.05270 | 39914 ft | 421 kts | 288° |
| 2026-04-26 10:49 | 26.54854 | 50.99117 | 39914 ft | 420 kts | 288° |
| 2026-04-26 10:49 | 26.56804 | 50.92960 | 39914 ft | 420 kts | 288° |
| 2026-04-26 10:50 | 26.58413 | 50.87864 | 39911 ft | 420 kts | 287° |
| 2026-04-26 10:50 | 26.60647 | 50.80644 | 39913 ft | 421 kts | 287° |
| 2026-04-26 10:51 | 26.63509 | 50.71361 | 39916 ft | 420 kts | 287° |
| 2026-04-26 10:52 | 26.65409 | 50.65169 | 39914 ft | 420 kts | 287° |
| 2026-04-26 10:52 | 26.67229 | 50.59005 | 39916 ft | 421 kts | 286° |
| 2026-04-26 10:53 | 26.69054 | 50.52780 | 39917 ft | 421 kts | 286° |
| 2026-04-26 10:53 | 26.70877 | 50.46563 | 39917 ft | 421 kts | 285° |
| 2026-04-26 10:54 | 26.73290 | 50.37170 | 39927 ft | 419 kts | 284° |
| 2026-04-26 10:54 | 26.74846 | 50.30929 | 39926 ft | 419 kts | 284° |
| 2026-04-26 10:55 | 26.76449 | 50.24716 | 39919 ft | 419 kts | 285° |
| 2026-04-26 10:55 | 26.78295 | 50.18527 | 39917 ft | 419 kts | 287° |
| 2026-04-26 10:56 | 26.80200 | 50.12347 | 39929 ft | 419 kts | 287° |
| 2026-04-26 10:56 | 26.82069 | 50.06165 | 39929 ft | 419 kts | 286° |
| 2026-04-26 10:57 | 26.83913 | 49.99972 | 39930 ft | 418 kts | 286° |
| 2026-04-26 10:57 | 26.85746 | 49.93800 | 39937 ft | 417 kts | 286° |
| 2026-04-26 10:58 | 26.87568 | 49.87630 | 39936 ft | 417 kts | 286° |
| 2026-04-26 10:58 | 26.89391 | 49.81453 | 39936 ft | 417 kts | 286° |
| 2026-04-26 10:59 | 26.91200 | 49.75319 | 39940 ft | 417 kts | 286° |
| 2026-04-26 10:59 | 26.93019 | 49.69143 | 39940 ft | 418 kts | 286° |
| 2026-04-26 11:00 | 26.94836 | 49.62960 | 39945 ft | 416 kts | 286° |
| 2026-04-26 11:00 | 26.96636 | 49.56830 | 39944 ft | 413 kts | 286° |
| 2026-04-26 11:01 | 26.98427 | 49.50714 | 39940 ft | 413 kts | 286° |
| 2026-04-26 11:01 | 27.00217 | 49.44591 | 39944 ft | 413 kts | 286° |
| 2026-04-26 11:02 | 27.02527 | 49.38664 | 39941 ft | 417 kts | 295° |